Flight Track Log - Related Links

Times and Time Zones

All times are in EDT time to prevent confusion due to time zone crossing. See the EJA951 flight status page for this flight to view local times or setup timezone preferences in your user account.

Time Position Orientation Groundspeed Altitude Reporting Facility
EDT Latitude Longitude Course Direction KTS MPH feet Rate Location/Type
Wed 11:00:35 AM 42.9333 -87.9333 144° Southeast 188 216 1,900  Level KMKE
Wed 11:01:53 AM 42.8833 -87.8833 144° Southeast 281 323 7,300 4,015 Climbing KMKE
Wed 11:02:51 AM 42.8869 -87.7761 87° East 314 361 11,000 3,100 Climbing Chicago Center
Wed 11:03:53 AM 42.8881 -87.6289 89° East 390 449 13,500 2,274 Climbing Chicago Center
Wed 11:04:55 AM 42.8856 -87.4672 91° East 424 488 15,700 2,032 Climbing Chicago Center
Wed 11:05:57 AM 42.8736 -87.3106 96° East 443 510 17,700 2,129 Climbing Chicago Center
Wed 11:06:59 AM 42.7658 -87.1742 137° Southeast 444 511 20,100 2,177 Climbing Chicago Center
Wed 11:08:01 AM 42.6722 -87.0669 140° Southeast 444 511 22,200 1,887 Climbing Chicago Center
Wed 11:09:03 AM 42.5733 -86.9567 141° Southeast 458 527 24,000 1,790 Climbing Chicago Center
Wed 11:10:05 AM 42.4758 -86.8436 139° Southeast 469 540 25,900 1,452 Climbing Chicago Center
Wed 11:11:07 AM 42.3719 -86.7281 141° Southeast 479 551 27,000 532 Climbing Chicago Center
Wed 11:12:09 AM 42.2550 -86.5953 140° Southeast 511 588 27,000  Level Chicago Center
Wed 11:13:11 AM 42.1428 -86.4689 140° Southeast 526 605 27,000  Level Chicago Center
Wed 11:14:13 AM 42.0078 -86.3181 140° Southeast 527 606 27,000  Level Chicago Center
Wed 11:15:15 AM 41.8933 -86.1892 140° Southeast 535 616 27,000  Level Chicago Center
Wed 11:16:17 AM 41.7786 -86.0631 141° Southeast 536 617 27,000  Level Chicago Center
Wed 11:17:18 AM 41.6631 -85.9356 140° Southeast 540 621 27,000  Level Chicago Center
Wed 11:18:20 AM 41.5486 -85.8092 140° Southeast 539 620 27,000  Level Chicago Center
Wed 11:19:22 AM 41.4114 -85.6589 141° Southeast 542 624 27,000  Level Chicago Center
Wed 11:20:24 AM 41.2975 -85.5333 140° Southeast 542 624 27,000  Level Chicago Center
Wed 11:21:26 AM 41.1825 -85.4067 140° Southeast 541 623 27,000 -387 Level Chicago Center
Wed 11:22:28 AM 41.0669 -85.2817 141° Southeast 541 623 26,200 -1,452 Descending Chicago Center
Wed 11:23:30 AM 40.9633 -85.1572 138° Southeast 513 590 24,000 -2,081 Descending Chicago Center
Wed 11:24:32 AM 40.8611 -84.9894 129° Southeast 492 566 21,900 -1,452 Descending Chicago Center
Wed 11:25:34 AM 40.7794 -84.8528 128° Southeast 482 555 21,000 -435 Descending Chicago Center
Wed 11:26:36 AM 40.6956 -84.7131 128° Southeast 484 557 21,000  Level Chicago Center
Wed 11:27:37 AM 40.6028 -84.5800 133° Southeast 493 567 21,000  Level Chicago Center
Wed 11:28:12 AM 40.5431 -84.5081 138° Southeast 491 565 21,000 -928 Level Indianapolis Center
Wed 11:29:14 AM 40.4444 -84.3864 137° Southeast 485 558 19,500 -1,935 Descending Indianapolis Center
Wed 11:30:16 AM 40.3478 -84.2722 138° Southeast 468 539 17,000 -2,390 Descending Indianapolis Center
Wed 11:31:17 AM 40.2386 -84.1936 151° Southeast 447 514 14,600 -2,203 Descending Indianapolis Center
Wed 11:31:35 AM 40.1961 -84.1639 152° Southeast 439 505 14,100 -1,595 Descending Indianapolis Center
Wed 11:32:36 AM 40.0756 -84.1506 175° South 408 470 12,500 -1,488 Descending Indianapolis Center
Wed 11:33:36 AM 39.9664 -84.1825 193° South 396 456 11,100 -1,304 Descending Indianapolis Center
Wed 11:34:31 AM 39.8722 -84.2056 191° South 392 451 10,000 -606 Descending Indianapolis Center
Wed 11:35:25 AM 39.7881 -84.2297 192° South 383 441 10,000 -470 Level Indianapolis Center
Wed 11:36:26 AM 39.7133 -84.2511 192° South 291 335 9,100 -1,366 Descending Indianapolis Center
Wed 11:37:28 AM 39.6403 -84.2719 192° South 270 311 7,200 -1,887 Descending Indianapolis Center
Wed 11:38:30 AM 39.5692 -84.2917 192° South 264 304 5,200 -1,065 Descending Indianapolis Center
Wed 11:39:32 AM 39.4847 -84.3139 191° South 263 303 5,000 -97 Descending Indianapolis Center
Wed 11:40:34 AM 39.4136 -84.3239 186° South 263 303 5,000  Level Indianapolis Center
Wed 11:41:36 AM 39.3653 -84.2608 135° Southeast 256 295 5,000  Level Indianapolis Center
Wed 11:42:37 AM 39.3100 -84.2133 146° Southeast 243 280 5,000 -49 Level Indianapolis Center
Wed 11:43:39 AM 39.2542 -84.1628 145° Southeast 242 278 4,900 -726 Descending Indianapolis Center
Wed 11:44:41 AM 39.2031 -84.1461 166° South 226 260 3,500 -919 Descending Indianapolis Center
Wed 11:45:43 AM 39.1836 -84.2003 245° Southwest 184 212 3,000 -242 Descending Indianapolis Center
Wed 11:46:45 AM 39.1697 -84.2592 253° West 173 199 3,000 -532 Level Indianapolis Center
Wed 11:48:21 AM 39.1333 -84.3500 243° Southwest 167 192 1,600 -875 Descending Cincinnati TRACON
Wed 11:50:00 AM 39.1000 -84.4167 195° South  Level FlightAware Approximate
Wed 11:57:00 AM 39.1033 -84.4186 195° South  Level Estimated

Login

Don't have an account? Register now (free) for customized features, flight alerts, and more!